Asbury, Iowa
Current Conditions -  °F | °C
As of 7:53 AM on Saturday 25 Oct 2014 (Local Time) from KDBQ Reporting Station
Clear Clear  
Wind Chill: 53°   Ceiling: Unl
Heat Index: 53°   Visibility: 10mi
Dew Point: 45°   Wind: 13mph
Humidity: 74%   Direction: 330°NNW
Pressure: 29.99"   Gusts: NA
Location:  42.522°N, 90.7782°W
Report Text: KDBQ 251253Z 33011KT 10SM CLR 12/07 A2999 RMK AO2 SLP156 T01170072
Loading
Personal Weather Stations






























Interactive Weather Map
Tropical Storm Tracking
New forecast layout! Learn more

10-Day Weather Forecast

Advertisements
Track Severe Weather on mobile